Aérodrome :
LOGIN :

S'inscrire | Disclaimer

   EN    FR    IT 

 










Légende :    VFR   VFR Marginal   IFR   IFR Intensif   IFR Très Intensif
Visi : 
Plafond : 
>= 8 km
>= 3000ft
5 à 8 km
1000 à 3000 ft
1500m à 5 km
500 à 1000 ft
800 à 1500m
200 à 500 ft
< 800m
< 200 ft
Symboles :   Orages  Brouillard  Fortes neiges  Fortes précipitations  Vent > 20 kt
SIGMETs :   Divers  Orages  Givrage  Turbulence  Onde Orograph.  Cendres Volcan.







- Altitude de l'aérodrome : 200 ft


EBBL - Klein Brogel AB

DERNIER METAR :
  • 211925Z AUTO 31006KT 9999 FEW041/// 13/04 Q1025 BLU

METARs EXPIRÉS :
  • 211855Z AUTO 31007KT 9999 FEW054/// 14/05 Q1025 BLU
  • 211825Z AUTO 32010G21KT 9999 BKN039/// 14/04 Q1025 BLU
  • 211755Z AUTO 32008KT 9999 BKN038/// 15/05 Q1025 BLU
  • 211725Z AUTO 32010KT 9999 -RA BKN035/// BKN061/// 15/06 Q1025 BLU
  • 211655Z AUTO 32010KT 9999 BKN039/// 15/06 Q1024 BLU

TAF TAF EBBL
Valide du 21 à 19h jusqu'au 22 à 07h UTC


211541Z 2119/2207 30010G20KT 9999 SCT040
TEMPO 2122/2202 28006G18KT SCT020 SCT040
BECMG 2202/2204 SCT030 BKN050
Pas de NOTAMs connus pour ce terrain.



MET'MAP, la Météo Aéronautique d'un coup d'oeil ! - Copyright ORBIFLY Décembre 2007 - Disclaimer

ORBIFLY MET'MAP TEAM :

Programmation & Développement : Alexandra Zaïnal
Conception & Développement : Baudouin d'Aumeries
Co-Programmation & Développement : Marc-Olivier Méhu
Soutien technique & logistique : Manuel Goepfert

Contact : metmap@orbifly.com




SOURCES & CREDITS :

   NOAA